createdAt,value
2023-02-01T00:01:31.872Z,2.16
2023-02-01T00:04:05.910Z,2.17
2023-02-01T00:06:34.372Z,2.18
2023-02-01T00:09:03.200Z,2.18
2023-02-01T00:11:31.576Z,2.20
2023-02-01T00:14:00.461Z,2.22
2023-02-01T00:16:31.345Z,2.23
2023-02-01T00:19:02.360Z,2.25
2023-02-01T00:21:30.909Z,2.26
2023-02-01T00:24:00.105Z,2.30
2023-02-01T00:26:32.487Z,2.33
2023-02-01T00:29:01.859Z,2.36
2023-02-01T00:31:30.526Z,2.40
2023-02-01T00:34:00.101Z,2.43
2023-02-01T00:36:28.774Z,2.47
2023-02-01T00:38:57.252Z,2.53
2023-02-01T00:41:26.202Z,2.57
2023-02-01T00:43:55.607Z,2.61
2023-02-01T00:46:24.494Z,2.64
2023-02-01T00:48:53.112Z,2.69
2023-02-01T00:51:24.482Z,2.74
2023-02-01T00:53:53.339Z,2.80
2023-02-01T00:56:22.046Z,2.83
2023-02-01T00:58:50.880Z,2.88
2023-02-01T01:01:21.251Z,2.92
2023-02-01T01:03:51.323Z,2.93
2023-02-01T01:06:21.810Z,2.93
2023-02-01T01:08:53.389Z,2.93
2023-02-01T01:11:25.850Z,2.92
2023-02-01T01:13:55.370Z,2.91
2023-02-01T01:16:25.171Z,2.90
2023-02-01T01:18:54.316Z,2.86
2023-02-01T01:21:22.733Z,2.85
2023-02-01T01:23:51.212Z,2.83
2023-02-01T01:26:21.645Z,2.81
2023-02-01T01:28:50.089Z,2.81
2023-02-01T01:31:19.628Z,2.80
2023-02-01T01:33:50.478Z,2.77
2023-02-01T01:36:20.404Z,2.75
2023-02-01T01:38:48.777Z,2.72
2023-02-01T01:41:19.591Z,2.71
2023-02-01T01:43:50.565Z,2.70
2023-02-01T01:46:20.988Z,2.72
2023-02-01T01:48:54.829Z,2.72
2023-02-01T01:51:25.975Z,2.71
2023-02-01T01:54:00.540Z,2.70
2023-02-01T01:56:30.059Z,2.69
2023-02-01T01:58:59.780Z,2.70
2023-02-01T02:01:29.391Z,2.69
2023-02-01T02:03:58.438Z,2.69
2023-02-01T02:06:37.875Z,2.68
2023-02-01T02:09:07.260Z,2.67
2023-02-01T02:11:38.467Z,2.67
2023-02-01T02:14:09.513Z,2.66
2023-02-01T02:16:55.252Z,2.66
2023-02-01T02:19:57.912Z,2.67
2023-02-01T02:22:43.007Z,2.66
2023-02-01T02:25:52.401Z,2.66
2023-02-01T02:29:01.753Z,2.65
2023-02-01T02:31:52.591Z,2.64
2023-02-01T02:34:23.385Z,2.62
2023-02-01T02:37:00.158Z,2.63
2023-02-01T02:39:39.897Z,2.62
2023-02-01T02:42:32.408Z,2.63
2023-02-01T02:45:22.832Z,2.63
2023-02-01T02:47:58.701Z,2.63
2023-02-01T02:50:51.788Z,2.64
2023-02-01T02:53:47.766Z,2.63
2023-02-01T02:56:35.504Z,2.63
2023-02-01T02:59:23.657Z,2.64
2023-02-01T03:02:11.681Z,2.63
2023-02-01T03:04:40.946Z,2.63
2023-02-01T03:07:17.066Z,2.62
2023-02-01T03:09:47.687Z,2.62
2023-02-01T03:12:35.629Z,2.61
2023-02-01T03:15:09.390Z,2.61
2023-02-01T03:17:41.619Z,2.60
2023-02-01T03:20:13.894Z,2.59
2023-02-01T03:22:45.877Z,2.58
2023-02-01T03:25:18.646Z,2.58
2023-02-01T03:27:52.362Z,2.58
2023-02-01T03:30:23.982Z,2.56
2023-02-01T03:33:00.153Z,2.56
2023-02-01T03:35:31.532Z,2.58
2023-02-01T03:38:05.028Z,2.58
2023-02-01T03:40:38.353Z,2.55
2023-02-01T03:43:08.515Z,2.50
2023-02-01T03:45:41.142Z,2.45
2023-02-01T03:48:11.111Z,2.40
2023-02-01T03:50:44.420Z,2.36
2023-02-01T03:53:17.544Z,2.32
2023-02-01T03:55:46.263Z,2.30
2023-02-01T03:58:16.329Z,2.30
2023-02-01T04:00:49.065Z,2.29
2023-02-01T04:03:17.650Z,2.28
2023-02-01T04:05:46.010Z,2.27
2023-02-01T04:08:14.471Z,2.26
2023-02-01T04:10:42.872Z,2.26
2023-02-01T04:13:11.671Z,2.26
2023-02-01T04:15:40.221Z,2.27
2023-02-01T04:18:08.616Z,2.27
2023-02-01T04:20:37.295Z,2.28
2023-02-01T04:23:05.770Z,2.28
2023-02-01T04:25:34.400Z,2.30
2023-02-01T04:28:03.114Z,2.33
2023-02-01T04:30:31.771Z,2.35
2023-02-01T04:33:00.197Z,2.37
2023-02-01T04:35:28.657Z,2.40
2023-02-01T04:37:57.022Z,2.42
2023-02-01T04:40:25.881Z,2.44
2023-02-01T04:42:54.395Z,2.46
2023-02-01T04:45:22.789Z,2.46
2023-02-01T04:47:51.538Z,2.46
2023-02-01T04:50:21.153Z,2.49
2023-02-01T04:52:49.911Z,2.53
2023-02-01T04:55:18.876Z,2.54
2023-02-01T04:57:47.220Z,2.57
2023-02-01T05:00:17.821Z,2.57
2023-02-01T05:02:46.528Z,2.59
2023-02-01T05:05:15.662Z,2.60
2023-02-01T05:07:44.493Z,2.61
2023-02-01T05:10:13.204Z,2.63
2023-02-01T05:13:01.115Z,2.64
2023-02-01T05:15:29.831Z,2.65
2023-02-01T05:17:58.867Z,2.65
2023-02-01T05:20:27.397Z,2.65
2023-02-01T05:22:55.750Z,2.66
2023-02-01T05:25:24.128Z,2.67
2023-02-01T05:27:52.560Z,2.67
2023-02-01T05:30:21.329Z,2.68
2023-02-01T05:32:52.031Z,2.67
2023-02-01T05:35:21.036Z,2.68
2023-02-01T05:37:49.757Z,2.69
2023-02-01T05:40:18.574Z,2.69
2023-02-01T05:42:47.264Z,2.70
2023-02-01T05:45:15.926Z,2.70
2023-02-01T05:47:44.253Z,2.72
2023-02-01T05:50:12.968Z,2.72
2023-02-01T05:52:41.655Z,2.71
2023-02-01T05:55:10.481Z,2.69
2023-02-01T05:57:39.229Z,2.68
2023-02-01T06:00:11.693Z,2.66
2023-02-01T06:02:41.193Z,2.65
2023-02-01T06:05:10.628Z,2.64
2023-02-01T06:07:39.015Z,2.64
2023-02-01T06:10:09.637Z,2.61
2023-02-01T06:12:38.478Z,2.62
2023-02-01T06:15:09.687Z,2.61
2023-02-01T06:17:38.717Z,2.60
2023-02-01T06:20:10.037Z,2.60
2023-02-01T06:22:40.431Z,2.59
2023-02-01T06:25:10.749Z,2.60
2023-02-01T06:27:39.194Z,2.59
2023-02-01T06:30:10.631Z,2.60
2023-02-01T06:32:39.772Z,2.60
2023-02-01T06:35:11.705Z,2.61
2023-02-01T06:37:40.168Z,2.63
2023-02-01T06:40:11.178Z,2.65
2023-02-01T06:42:39.618Z,2.67
2023-02-01T06:45:10.464Z,2.68
2023-02-01T06:47:38.816Z,2.68
2023-02-01T06:50:09.994Z,2.69
2023-02-01T06:52:38.381Z,2.70
2023-02-01T06:55:08.590Z,2.71
2023-02-01T06:57:36.950Z,2.72
2023-02-01T07:00:07.452Z,2.72
2023-02-01T07:02:35.790Z,2.73
2023-02-01T07:05:05.041Z,2.72
2023-02-01T07:07:33.469Z,2.72
2023-02-01T07:10:02.145Z,2.72
2023-02-01T07:12:30.486Z,2.72
2023-02-01T07:14:59.137Z,2.72
2023-02-01T07:17:29.482Z,2.71
2023-02-01T07:20:00.320Z,2.70
2023-02-01T07:22:29.493Z,2.70
2023-02-01T07:24:57.834Z,2.71
2023-02-01T07:27:26.246Z,2.71
2023-02-01T07:29:56.003Z,2.72
2023-02-01T07:32:24.466Z,2.72
2023-02-01T07:34:52.843Z,2.73
2023-02-01T07:37:21.575Z,2.73
2023-02-01T07:39:51.001Z,2.74
2023-02-01T07:42:19.567Z,2.82
2023-02-01T07:44:48.335Z,2.88
2023-02-01T07:47:16.985Z,2.87
2023-02-01T07:49:45.329Z,2.84
2023-02-01T07:52:16.433Z,2.83
2023-02-01T07:54:44.825Z,2.82
2023-02-01T07:57:13.772Z,2.81
2023-02-01T08:00:05.647Z,2.81
2023-02-01T08:02:34.757Z,2.81
2023-02-01T08:05:05.402Z,2.82
2023-02-01T08:07:33.785Z,2.81
2023-02-01T08:10:02.759Z,2.81
2023-02-01T08:12:31.185Z,2.80
2023-02-01T08:14:59.612Z,2.81
2023-02-01T08:17:28.867Z,2.80
2023-02-01T08:19:57.889Z,2.80
2023-02-01T08:22:26.541Z,2.81
2023-02-01T08:25:01.566Z,2.82
2023-02-01T08:27:32.451Z,2.83
2023-02-01T08:30:01.159Z,2.83
2023-02-01T08:32:29.629Z,2.85
2023-02-01T08:34:58.383Z,2.86
2023-02-01T08:37:27.233Z,2.84
2023-02-01T08:39:55.558Z,2.83
2023-02-01T08:42:42.891Z,2.81
2023-02-01T08:45:12.140Z,2.78
2023-02-01T08:47:40.561Z,2.76
2023-02-01T08:50:11.383Z,2.74
2023-02-01T08:52:39.841Z,2.74
2023-02-01T08:55:10.023Z,2.73
2023-02-01T08:57:39.201Z,2.71
2023-02-01T09:00:12.309Z,2.69
2023-02-01T09:02:40.732Z,2.68
2023-02-01T09:05:11.219Z,2.69
2023-02-01T09:07:39.706Z,2.71
2023-02-01T09:10:10.331Z,2.75
2023-02-01T09:12:38.864Z,2.81
2023-02-01T09:15:09.583Z,2.86
2023-02-01T09:17:38.127Z,2.91
2023-02-01T09:20:08.081Z,2.97
2023-02-01T09:22:36.543Z,3.01
2023-02-01T09:25:07.021Z,3.05
2023-02-01T09:27:35.640Z,3.09
2023-02-01T09:30:05.130Z,3.12
2023-02-01T09:32:33.699Z,3.16
2023-02-01T09:35:02.162Z,3.19
2023-02-01T09:37:31.137Z,3.22
2023-02-01T09:39:59.695Z,3.26
2023-02-01T09:42:52.269Z,3.30
2023-02-01T09:45:25.186Z,3.35
2023-02-01T09:47:57.079Z,3.40
2023-02-01T09:50:31.641Z,3.47
2023-02-01T09:53:02.846Z,3.52
2023-02-01T09:55:37.733Z,3.60
2023-02-01T09:58:08.435Z,3.69
2023-02-01T10:00:38.650Z,3.75
2023-02-01T10:03:12.790Z,3.80
2023-02-01T10:05:57.465Z,3.84
2023-02-01T10:08:37.198Z,3.89
2023-02-01T10:11:13.423Z,3.91
2023-02-01T10:13:52.940Z,3.92
2023-02-01T10:16:28.686Z,3.93
2023-02-01T10:19:05.221Z,3.93
2023-02-01T10:21:44.757Z,3.94
2023-02-01T10:24:32.482Z,3.96
2023-02-01T10:27:07.314Z,3.99
2023-02-01T10:29:41.919Z,4.00
2023-02-01T10:32:15.799Z,4.00
2023-02-01T10:34:50.995Z,3.98
2023-02-01T10:37:34.146Z,3.96
2023-02-01T10:40:10.230Z,3.97
2023-02-01T10:42:38.948Z,3.98
2023-02-01T10:45:14.118Z,3.98
2023-02-01T10:47:43.051Z,3.99
2023-02-01T10:50:19.978Z,3.99
2023-02-01T10:52:51.118Z,3.99
2023-02-01T10:55:34.016Z,4.00
2023-02-01T10:58:04.386Z,4.02
2023-02-01T11:00:43.129Z,4.05
2023-02-01T11:03:37.152Z,4.10
2023-02-01T11:06:12.482Z,4.17
2023-02-01T11:08:46.703Z,4.24
2023-02-01T11:11:15.454Z,4.31
2023-02-01T11:13:45.445Z,4.36
2023-02-01T11:16:15.569Z,4.42
2023-02-01T11:18:44.016Z,4.45
2023-02-01T11:21:16.208Z,4.48
2023-02-01T11:23:46.566Z,4.51
2023-02-01T11:26:20.420Z,4.50
2023-02-01T11:28:59.426Z,4.50
2023-02-01T11:31:28.535Z,4.49
2023-02-01T11:34:00.651Z,4.46
2023-02-01T11:36:31.561Z,4.43
2023-02-01T11:39:22.520Z,4.39
2023-02-01T11:42:01.149Z,4.37
2023-02-01T11:44:33.399Z,4.34
2023-02-01T11:47:21.561Z,4.32
2023-02-01T11:49:52.531Z,4.28
2023-02-01T11:52:32.654Z,4.26
2023-02-01T11:55:14.067Z,4.26
2023-02-01T11:57:53.354Z,4.25
2023-02-01T12:01:01.627Z,4.25
2023-02-01T12:03:59.798Z,4.27
2023-02-01T12:06:36.875Z,4.33
2023-02-01T12:09:15.445Z,4.35
2023-02-01T12:11:52.049Z,4.36
2023-02-01T12:14:29.600Z,4.37
2023-02-01T12:17:19.721Z,4.38
2023-02-01T12:20:04.025Z,4.35
2023-02-01T12:22:42.900Z,4.29
2023-02-01T12:25:31.289Z,4.25
2023-02-01T12:28:17.301Z,4.22
2023-02-01T12:31:14.589Z,4.19
2023-02-01T12:33:53.210Z,4.19
2023-02-01T12:36:26.244Z,4.22
2023-02-01T12:38:58.495Z,4.21
2023-02-01T12:41:39.188Z,4.19
2023-02-01T12:44:12.242Z,4.17
2023-02-01T12:46:44.584Z,4.18
2023-02-01T12:49:15.459Z,4.18
2023-02-01T12:51:47.304Z,4.19
2023-02-01T12:54:20.391Z,4.18
2023-02-01T12:56:51.080Z,4.18
2023-02-01T12:59:25.808Z,4.18
2023-02-01T13:01:59.345Z,4.19
2023-02-01T13:04:33.404Z,4.22
2023-02-01T13:07:02.915Z,4.24
2023-02-01T13:09:37.397Z,4.26
2023-02-01T13:12:13.047Z,4.26
2023-02-01T13:14:46.799Z,4.27
2023-02-01T13:17:18.873Z,4.28
2023-02-01T13:19:51.715Z,4.29
2023-02-01T13:22:25.810Z,4.30
2023-02-01T13:24:56.857Z,4.31
2023-02-01T13:27:30.690Z,4.30
2023-02-01T13:30:01.335Z,4.29
2023-02-01T13:33:52.775Z,4.28
2023-02-01T13:36:24.137Z,4.27
2023-02-01T13:39:35.054Z,4.27
2023-02-01T13:42:07.312Z,4.26
2023-02-01T13:44:39.486Z,4.27
2023-02-01T13:47:16.948Z,4.27
2023-02-01T13:49:45.658Z,4.25
2023-02-01T13:52:27.545Z,4.22
2023-02-01T13:55:31.654Z,4.19
2023-02-01T13:58:11.587Z,4.15
2023-02-01T14:00:40.889Z,4.10
2023-02-01T14:03:15.898Z,4.06
2023-02-01T14:06:01.314Z,4.03
2023-02-01T14:08:45.043Z,3.98
2023-02-01T14:11:42.385Z,3.94
2023-02-01T14:14:43.439Z,3.89
2023-02-01T14:17:35.194Z,3.85
2023-02-01T14:20:54.330Z,3.83
2023-02-01T14:23:32.359Z,3.81
2023-02-01T14:26:08.008Z,3.81
2023-02-01T14:28:41.654Z,3.85
2023-02-01T14:31:33.962Z,3.88
2023-02-01T14:34:06.007Z,3.90
2023-02-01T14:36:46.729Z,3.91
2023-02-01T14:39:32.784Z,3.92
2023-02-01T14:42:04.435Z,3.91
2023-02-01T14:44:37.574Z,3.92
2023-02-01T14:47:35.091Z,3.94
2023-02-01T14:50:26.097Z,3.95
2023-02-01T14:53:13.985Z,3.96
2023-02-01T14:55:44.316Z,3.97
2023-02-01T14:58:20.329Z,3.97
2023-02-01T15:00:53.024Z,3.98
2023-02-01T15:03:49.232Z,3.99
2023-02-01T15:06:26.557Z,4.00
2023-02-01T15:08:57.433Z,4.01
2023-02-01T15:11:26.734Z,4.03
2023-02-01T15:13:56.625Z,4.03
2023-02-01T15:16:26.711Z,4.04
2023-02-01T15:19:14.046Z,4.05
2023-02-01T15:21:49.582Z,4.04
2023-02-01T15:24:23.066Z,4.04
2023-02-01T15:26:51.832Z,4.04
2023-02-01T15:29:21.708Z,4.02
2023-02-01T15:31:53.206Z,4.00
2023-02-01T15:34:23.468Z,4.00
2023-02-01T15:37:02.948Z,3.98
2023-02-01T15:39:32.510Z,3.98
2023-02-01T15:42:11.499Z,3.97
2023-02-01T15:44:42.143Z,3.97
2023-02-01T15:47:16.210Z,3.96
2023-02-01T15:49:45.012Z,3.94
2023-02-01T15:52:28.277Z,3.94
2023-02-01T15:54:59.162Z,3.92
2023-02-01T15:57:31.225Z,3.91
2023-02-01T16:00:03.546Z,3.90
2023-02-01T16:02:37.931Z,3.88
2023-02-01T16:05:26.338Z,3.88
2023-02-01T16:08:04.249Z,3.85
2023-02-01T16:10:39.135Z,3.83
2023-02-01T16:13:07.696Z,3.81
2023-02-01T16:15:36.219Z,3.80
2023-02-01T16:18:04.972Z,3.77
2023-02-01T16:20:35.561Z,3.71
2023-02-01T16:23:04.692Z,3.68
2023-02-01T16:25:33.268Z,3.65
2023-02-01T16:28:02.038Z,3.63
2023-02-01T16:30:30.816Z,3.61
2023-02-01T16:33:02.940Z,3.60
2023-02-01T16:35:37.009Z,3.59
2023-02-01T16:38:09.145Z,3.58
2023-02-01T16:40:37.650Z,3.57
2023-02-01T16:43:13.608Z,3.56
2023-02-01T16:45:44.193Z,3.55
2023-02-01T16:48:19.296Z,3.54
2023-02-01T16:50:49.003Z,3.52
2023-02-01T16:53:18.490Z,3.51
2023-02-01T16:55:48.227Z,3.50
2023-02-01T16:58:16.982Z,3.48
2023-02-01T17:00:46.983Z,3.47
2023-02-01T17:03:17.725Z,3.46
2023-02-01T17:05:48.176Z,3.45
2023-02-01T17:08:20.405Z,3.45
2023-02-01T17:10:49.075Z,3.44
2023-02-01T17:13:18.077Z,3.41
2023-02-01T17:15:51.215Z,3.42
2023-02-01T17:18:19.995Z,3.42
2023-02-01T17:20:48.681Z,3.44
2023-02-01T17:23:18.006Z,3.46
2023-02-01T17:25:47.834Z,3.48
2023-02-01T17:28:16.432Z,3.50
2023-02-01T17:30:45.217Z,3.50
2023-02-01T17:33:22.455Z,3.50
2023-02-01T17:35:51.625Z,3.50
2023-02-01T17:38:20.490Z,3.49
2023-02-01T17:40:48.940Z,3.49
2023-02-01T17:43:19.037Z,3.48
2023-02-01T17:45:52.115Z,3.47
2023-02-01T17:48:21.414Z,3.46
2023-02-01T17:50:54.080Z,3.44
2023-02-01T17:53:24.013Z,3.41
2023-02-01T17:55:53.036Z,3.39
2023-02-01T17:58:22.170Z,3.37
2023-02-01T18:00:51.316Z,3.35
2023-02-01T18:03:25.929Z,3.34
2023-02-01T18:05:56.180Z,3.30
2023-02-01T18:08:26.119Z,3.26
2023-02-01T18:10:55.922Z,3.22
2023-02-01T18:13:24.492Z,3.19
2023-02-01T18:15:53.037Z,3.15
2023-02-01T18:18:21.427Z,3.12
2023-02-01T18:20:50.269Z,3.12
2023-02-01T18:23:22.536Z,3.14
2023-02-01T18:25:52.161Z,3.16
2023-02-01T18:28:20.792Z,3.19
2023-02-01T18:30:51.052Z,3.20
2023-02-01T18:33:20.785Z,3.20
2023-02-01T18:35:51.694Z,3.19
2023-02-01T18:38:20.466Z,3.15
2023-02-01T18:40:51.304Z,3.08
2023-02-01T18:43:22.665Z,3.00
2023-02-01T18:45:51.609Z,2.92
2023-02-01T18:48:21.582Z,2.91
2023-02-01T18:50:56.499Z,2.87
2023-02-01T18:53:27.117Z,2.84
2023-02-01T18:55:56.897Z,2.83
2023-02-01T18:58:26.433Z,2.83
2023-02-01T19:00:56.296Z,2.84
2023-02-01T19:03:26.347Z,2.85
2023-02-01T19:05:56.558Z,2.85
2023-02-01T19:08:25.208Z,2.87
2023-02-01T19:10:54.208Z,2.87
2023-02-01T19:13:25.347Z,2.87
2023-02-01T19:15:53.936Z,2.86
2023-02-01T19:18:22.351Z,2.85
2023-02-01T19:20:54.275Z,2.84
2023-02-01T19:23:22.944Z,2.84
2023-02-01T19:25:51.771Z,2.84
2023-02-01T19:28:20.219Z,2.84
2023-02-01T19:30:48.844Z,2.85
2023-02-01T19:33:19.532Z,2.85
2023-02-01T19:35:48.525Z,2.86
2023-02-01T19:38:16.884Z,2.84
2023-02-01T19:40:45.322Z,2.83
2023-02-01T19:43:13.780Z,2.82
2023-02-01T19:45:42.986Z,2.81
2023-02-01T19:48:12.629Z,2.82
2023-02-01T19:50:41.585Z,2.82
2023-02-01T19:53:09.985Z,2.82
2023-02-01T19:55:38.397Z,2.80
2023-02-01T19:58:06.888Z,2.79
2023-02-01T20:00:35.283Z,2.77
2023-02-01T20:03:03.908Z,2.74
2023-02-01T20:05:32.606Z,2.71
2023-02-01T20:08:00.970Z,2.69
2023-02-01T20:10:29.529Z,2.67
2023-02-01T20:12:58.184Z,2.66
2023-02-01T20:15:27.710Z,2.66
2023-02-01T20:17:56.077Z,2.66
2023-02-01T20:20:25.019Z,2.66
2023-02-01T20:22:53.417Z,2.68
2023-02-01T20:25:22.450Z,2.70
2023-02-01T20:27:52.161Z,2.70
2023-02-01T20:30:21.209Z,2.70
2023-02-01T20:32:50.255Z,2.71
2023-02-01T20:35:21.653Z,2.70
2023-02-01T20:37:51.154Z,2.68
2023-02-01T20:40:19.967Z,2.65
2023-02-01T20:42:48.398Z,2.63
2023-02-01T20:45:17.022Z,2.61
2023-02-01T20:47:45.622Z,2.58
2023-02-01T20:50:14.048Z,2.56
2023-02-01T20:52:42.579Z,2.55
2023-02-01T20:55:11.371Z,2.52
2023-02-01T20:57:39.792Z,2.51
2023-02-01T21:00:11.204Z,2.50
2023-02-01T21:02:40.199Z,2.49
2023-02-01T21:05:10.140Z,2.49
2023-02-01T21:07:38.676Z,2.50
2023-02-01T21:10:08.786Z,2.51
2023-02-01T21:12:37.970Z,2.53
2023-02-01T21:15:08.246Z,2.55
2023-02-01T21:17:38.705Z,2.57
2023-02-01T21:20:09.187Z,2.59
2023-02-01T21:22:37.797Z,2.60
2023-02-01T21:25:08.510Z,2.61
2023-02-01T21:27:37.003Z,2.62
2023-02-01T21:30:08.174Z,2.63
2023-02-01T21:32:36.698Z,2.64
2023-02-01T21:35:06.372Z,2.66
2023-02-01T21:37:35.018Z,2.66
2023-02-01T21:40:03.771Z,2.67
2023-02-01T21:42:32.263Z,2.68
2023-02-01T21:45:01.841Z,2.69
2023-02-01T21:47:30.595Z,2.70
2023-02-01T21:49:59.071Z,2.72
2023-02-01T21:52:27.803Z,2.73
2023-02-01T21:54:58.936Z,2.74
2023-02-01T21:57:27.870Z,2.75
2023-02-01T21:59:58.168Z,2.76
2023-02-01T22:02:27.588Z,2.77
2023-02-01T22:04:57.355Z,2.78
2023-02-01T22:07:25.836Z,2.78
2023-02-01T22:10:00.475Z,2.77
2023-02-01T22:12:28.893Z,2.78
2023-02-01T22:14:57.344Z,2.79
2023-02-01T22:17:26.814Z,2.80
2023-02-01T22:19:55.844Z,2.79
2023-02-01T22:22:24.289Z,2.80
2023-02-01T22:24:53.834Z,2.81
2023-02-01T22:27:22.339Z,2.82
2023-02-01T22:30:16.099Z,2.83
2023-02-01T22:32:44.555Z,2.84
2023-02-01T22:35:15.461Z,2.86
2023-02-01T22:37:43.815Z,2.87
2023-02-01T22:40:13.733Z,2.87
2023-02-01T22:42:42.109Z,2.89
2023-02-01T22:45:11.557Z,2.90
2023-02-01T22:47:40.422Z,2.91
2023-02-01T22:50:11.176Z,2.90
2023-02-01T22:52:39.525Z,2.90
2023-02-01T22:55:08.541Z,2.89
2023-02-01T22:57:36.941Z,2.87
2023-02-01T23:00:08.974Z,2.85
2023-02-01T23:02:38.192Z,2.86
2023-02-01T23:05:07.318Z,2.86
2023-02-01T23:07:35.698Z,2.84
2023-02-01T23:10:05.455Z,2.81
2023-02-01T23:12:34.038Z,2.79
2023-02-01T23:15:05.746Z,2.76
2023-02-01T23:17:35.139Z,2.72
2023-02-01T23:20:04.461Z,2.65
2023-02-01T23:22:32.930Z,2.59
2023-02-01T23:25:01.486Z,2.51
2023-02-01T23:27:30.151Z,2.42
2023-02-01T23:29:58.877Z,2.34
2023-02-01T23:32:27.608Z,2.27
2023-02-01T23:34:56.468Z,2.20
2023-02-01T23:37:25.215Z,2.15
2023-02-01T23:39:53.714Z,2.10
2023-02-01T23:42:22.056Z,2.07
2023-02-01T23:44:50.400Z,2.06
2023-02-01T23:47:18.943Z,2.02
2023-02-01T23:49:47.318Z,2.00
2023-02-01T23:52:16.035Z,1.98
2023-02-01T23:54:47.131Z,1.98
2023-02-01T23:57:15.478Z,1.98
2023-02-01T23:59:43.844Z,1.98
